MULK1: ARKANSAS RIVER NEAR MULVANE 1W

Data processed at Sat Dec 09 2017 23:30


All information presented herein is the property of the government of the United States of America and may be revised or deleted at any time without prior notice.
Dissemination of this information without the expressed written consent of the Public Affairs Office, Tulsa District U.S. Army Corps of Engineers is strictly prohibited.
These data are gathered electronically and, as presented, have not undergone any form of quality control. These data are not guaranteed to be valid or correct.
Go to home page.
Go to station list.

Upstream stations:

Downstream station:
Previous Day
Next Day
Current Day
    
SHEF ID:       MULK1     ARKANSAS RIVER NEAR MULVANE 1W
STATION TYPE:  

               PRECIP     STAGE  RIV-FLOW  BAT-LOAD
                   in        ft       cfs      volt
              Ccp-Rev   Ccp-Rev   Ccp-Rev   Ccp-Rev
(US/Central)
12/07 00:00      0.00      6.47       591     12.17
12/07 01:00      0.00      6.47       591     12.17
12/07 02:00      0.00      6.48       597     12.09
12/07 03:00      0.00      6.47       591     12.09
12/07 04:00      0.00      6.47       591     12.09
12/07 05:00      0.00      6.47       591     12.09
12/07 06:00      0.00      6.47       591     12.01
12/07 07:00      0.00      6.47       591     12.01
12/07 08:00      0.00      6.48       597     12.01
12/07 09:00      0.00      6.47       591     13.21
12/07 10:00      0.00      6.47       591     13.44
12/07 11:00      0.00      6.46       584     12.81
12/07 12:00      0.00      6.45       577     13.60
12/07 13:00      0.00      6.44       571     14.00
12/07 14:00      0.00      6.44       571     13.84
12/07 15:00      0.00      6.43       564     13.44
12/07 16:00      0.00      6.43       564     13.68
12/07 17:00      0.00      6.41       551     13.05
12/07 18:00      0.00      6.39       538     12.33
12/07 19:00      0.00      6.38       532     12.17
12/07 20:00      0.00      6.40       545     12.17
12/07 21:00      0.00      6.42       558     12.17
12/07 22:00      0.00      6.46       584     12.17
12/07 23:00      0.00      6.49       604     12.17